Harris, Minnesota
Current Conditions -  °F | °C
As of 9:35 AM on Friday 24 Oct 2014 (Local Time) from KROS Reporting Station
Clear Clear  
Wind Chill: 46°   Ceiling: Unl
Heat Index: 50°   Visibility: 10mi
Dew Point: 47°   Wind: 9mph
Humidity: 92%   Direction: 160°SSE
Pressure: 29.88"   Gusts: NA
Location:  45.59°N, 92.97°W
Report Text: KROS 241435Z AUTO 16008KT 10SM CLR 10/09 A2988 RMK AO2 T00990086
Loading
Personal Weather Stations






























Interactive Weather Map
Tropical Storm Tracking
New forecast layout! Learn more

10-Day Weather Forecast

Advertisements
Track Severe Weather on mobile